Time;durP1;ratioP1;P1;durP2;ratioP2;P2;SDS_P1;SDS_P2;PMS_P1;PMS_P2;Temp;Humidity;BMP_temperature;BMP_pressure;BME280_temperature;BME280_humidity;BME280_pressure;Samples;Min_cycle;Max_cycle;Signal;HPM_P1;HPM_P2
2022/01/13 00:00:57;;;;;;;10.63;6.77;;;;;;;-13.44;80.73;101008.84;1713225;82;21056;-70
2022/01/13 00:03:24;;;;;;;15.67;8.27;;;;;;;-13.44;80.74;101001.08;1713008;83;21266;-72
2022/01/13 00:05:50;;;;;;;14.07;7.70;;;;;;;-13.44;80.76;101009.69;1662713;83;21721;-74
2022/01/13 00:08:17;;;;;;;11.47;7.43;;;;;;;-13.43;80.75;101006.20;1712750;82;21244;-77
2022/01/13 00:10:45;;;;;;;13.33;8.73;;;;;;;-13.43;80.71;100996.30;1713476;82;21805;-77
2022/01/13 00:13:21;;;;;;;23.43;8.27;;;;;;;-13.41;80.73;100984.12;1716609;82;21457;-74
2022/01/13 00:15:47;;;;;;;12.57;7.47;;;;;;;-13.41;80.70;100981.08;1686337;83;21809;-74
2022/01/13 00:18:12;;;;;;;20.10;8.23;;;;;;;-13.40;80.78;100978.05;1715869;82;21225;-74
2022/01/13 00:21:00;;;;;;;10.87;7.53;;;;;;;-13.39;80.80;100972.81;1715878;82;21021;-75
2022/01/13 00:25:54;;;;;;;13.17;8.73;;;;;;;-13.34;80.84;100984.25;1714848;82;21913;-74
2022/01/13 00:28:21;;;;;;;16.00;9.63;;;;;;;-13.34;80.89;100998.48;1701085;82;21193;-72
2022/01/13 00:30:53;;;;;;;16.33;10.23;;;;;;;-13.35;80.85;100997.64;1713051;82;21228;-72
2022/01/13 00:33:23;;;;;;;16.00;7.70;;;;;;;-13.35;80.85;101004.56;1684481;83;21308;-74
2022/01/13 00:35:46;;;;;;;18.47;10.20;;;;;;;-13.37;80.75;101006.36;1712975;82;22496;-75
2022/01/13 00:38:12;;;;;;;12.67;7.40;;;;;;;-13.41;80.74;101000.48;1713088;83;21294;-75
2022/01/13 00:40:38;;;;;;;12.97;8.70;;;;;;;-13.45;80.80;101000.23;1713354;82;21508;-74
2022/01/13 00:43:05;;;;;;;15.07;8.83;;;;;;;-13.50;80.83;100993.13;1713205;82;21263;-76
2022/01/13 00:45:31;;;;;;;18.47;11.57;;;;;;;-13.52;80.96;100992.81;1715350;82;21252;-74
2022/01/13 00:47:57;;;;;;;13.93;8.20;;;;;;;-13.51;81.07;100993.17;1724190;81;21305;-72
2022/01/13 00:50:24;;;;;;;13.57;8.40;;;;;;;-13.52;81.26;100987.64;1725923;82;21216;-79
2022/01/13 00:52:50;;;;;;;13.90;8.10;;;;;;;-13.52;81.46;100995.41;1705118;83;21638;-74
2022/01/13 00:55:21;;;;;;;16.17;9.57;;;;;;;-13.53;81.51;100979.48;1718699;83;21119;-72
2022/01/13 00:57:45;;;;;;;10.20;6.63;;;;;;;-13.53;81.62;100984.66;1685878;83;21293;-70
2022/01/13 01:00:12;;;;;;;10.70;7.77;;;;;;;-13.51;81.68;100991.44;1713499;83;21450;-75
2022/01/13 01:02:38;;;;;;;12.70;8.93;;;;;;;-13.51;81.59;100977.20;1731101;81;21287;-72
2022/01/13 01:05:05;;;;;;;15.13;9.73;;;;;;;-13.55;81.50;100979.55;1725694;81;21315;-74
2022/01/13 01:07:31;;;;;;;11.13;7.30;;;;;;;-13.57;81.56;100989.10;1728110;81;21786;-69
2022/01/13 01:10:01;;;;;;;12.37;9.57;;;;;;;-13.60;81.69;100975.47;1741195;82;21846;-71
2022/01/13 01:12:26;;;;;;;18.03;10.53;;;;;;;-13.63;81.84;100988.55;1736647;81;21301;-73
2022/01/13 01:14:57;;;;;;;19.23;10.73;;;;;;;-13.66;81.93;100977.02;1751288;81;21161;-73
2022/01/13 01:17:21;;;;;;;13.27;8.70;;;;;;;-13.69;82.00;100977.16;1751686;81;21194;-72
2022/01/13 01:19:50;;;;;;;15.60;9.47;;;;;;;-13.72;82.11;100976.41;1738238;81;21219;-72
2022/01/13 01:22:38;;;;;;;17.57;9.73;;;;;;;-13.69;82.20;100967.66;1704144;81;21169;-72
2022/01/13 01:25:02;;;;;;;10.48;6.05;;;;;;;-13.68;82.26;100976.27;1710885;83;21411;-74
2022/01/13 01:27:26;;;;;;;21.20;8.33;;;;;;;-13.67;82.41;100972.77;1709567;83;21517;-73
2022/01/13 01:29:58;;;;;;;13.40;7.63;;;;;;;-13.63;82.55;100968.70;1725734;82;21179;-71
2022/01/13 01:32:18;;;;;;;11.40;8.10;;;;;;;-13.61;82.54;100967.31;1723470;81;21268;-76
2022/01/13 01:34:55;;;;;;;17.30;10.33;;;;;;;-13.59;82.58;100971.53;1723742;82;21309;-73
2022/01/13 01:37:27;;;;;;;13.93;10.10;;;;;;;-13.59;82.62;100966.81;1728258;81;21824;-68
2022/01/13 01:39:54;;;;;;;17.57;9.73;;;;;;;-13.57;82.67;100961.95;1724758;83;21418;-71
2022/01/13 01:42:21;;;;;;;16.23;8.10;;;;;;;-13.55;82.72;100962.73;1725954;81;21275;-71
2022/01/13 01:44:50;;;;;;;10.03;7.97;;;;;;;-13.54;82.75;100963.13;1723293;82;21318;-72
2022/01/13 01:47:18;;;;;;;13.00;7.93;;;;;;;-13.53;82.79;100976.45;1689774;81;21191;-72
2022/01/13 01:49:48;;;;;;;16.23;7.40;;;;;;;-13.50;82.81;100971.59;1720100;83;21291;-71
2022/01/13 01:52:17;;;;;;;18.40;10.03;;;;;;;-13.49;82.81;100978.45;1709175;81;21263;-73
2022/01/13 01:54:46;;;;;;;16.10;8.77;;;;;;;-13.48;82.77;100972.37;1717918;81;21139;-70
2022/01/13 01:57:13;;;;;;;17.33;8.50;;;;;;;-13.45;82.79;100955.41;1707997;83;21733;-72
2022/01/13 01:59:41;;;;;;;19.87;10.33;;;;;;;-13.43;82.74;100949.73;1721592;83;21678;-72
2022/01/13 02:02:08;;;;;;;13.43;9.17;;;;;;;-13.36;82.86;100944.66;1723830;82;21294;-72
2022/01/13 02:04:36;;;;;;;11.87;7.57;;;;;;;-13.29;82.73;100943.48;1721513;82;21329;-70
2022/01/13 02:07:05;;;;;;;15.40;8.67;;;;;;;-13.30;82.70;100941.80;1718902;83;21269;-70
2022/01/13 02:09:36;;;;;;;9.80;7.50;;;;;;;-13.29;82.67;100937.87;1718721;82;21270;-72
2022/01/13 02:12:10;;;;;;;12.70;8.57;;;;;;;-13.24;82.70;100944.58;1718011;82;21578;-71
2022/01/13 02:14:48;;;;;;;13.97;7.07;;;;;;;-13.23;82.75;100931.55;1702159;83;21730;-70
2022/01/13 02:17:11;;;;;;;21.50;10.00;;;;;;;-13.16;83.02;100935.55;1692320;83;21209;-72
2022/01/13 02:19:38;;;;;;;;;;;;;;;-13.12;82.94;100925.89;1693112;83;21338;-73
2022/01/13 02:22:04;;;;;;;16.63;8.80;;;;;;;-13.12;83.00;100930.62;1742013;81;20126;-72
2022/01/13 02:24:31;;;;;;;12.10;7.50;;;;;;;-13.11;83.03;100929.72;1730940;81;21250;-72
2022/01/13 02:26:57;;;;;;;18.10;8.73;;;;;;;-13.07;83.10;100932.97;1717156;83;21167;-70
2022/01/13 02:29:23;;;;;;;17.93;8.97;;;;;;;-13.03;83.14;100928.03;1689429;83;22025;-71
2022/01/13 02:31:50;;;;;;;19.73;8.77;;;;;;;-12.99;83.20;100925.22;1717410;82;22696;-72
2022/01/13 02:34:16;;;;;;;22.33;9.87;;;;;;;-12.92;83.20;100933.56;1734158;81;21283;-70
2022/01/13 02:36:43;;;;;;;10.13;8.43;;;;;;;-12.89;83.12;100929.07;1717241;83;21279;-71
2022/01/13 02:39:10;;;;;;;11.53;9.03;;;;;;;-12.86;83.05;100926.36;1717298;83;21257;-71
2022/01/13 02:41:36;;;;;;;13.63;9.27;;;;;;;-12.85;82.99;100931.05;1717208;83;21871;-71
2022/01/13 02:44:11;;;;;;;12.30;7.73;;;;;;;-12.84;83.01;100923.22;1734530;81;21275;-71
2022/01/13 02:49:11;;;;;;;18.17;11.03;;;;;;;-12.79;83.15;100923.45;1718827;83;21280;-73
2022/01/13 02:51:41;;;;;;;16.17;10.20;;;;;;;-12.74;83.16;100925.37;1719217;82;22400;-72
2022/01/13 02:54:07;;;;;;;10.07;8.63;;;;;;;-12.70;83.17;100925.16;1740552;81;21314;-72
2022/01/13 02:56:35;;;;;;;12.50;7.03;;;;;;;-12.66;83.22;100921.51;1700104;83;21846;-72
2022/01/13 02:59:02;;;;;;;13.97;10.23;;;;;;;-12.65;83.16;100902.92;1688930;83;21371;-73
2022/01/13 03:01:28;;;;;;;13.63;8.00;;;;;;;-12.65;83.15;100905.06;1689931;83;21912;-74
2022/01/13 03:03:55;;;;;;;8.93;7.20;;;;;;;-12.58;83.25;100896.55;1693662;83;21416;-72
2022/01/13 03:06:28;;;;;;;12.90;8.87;;;;;;;-12.58;83.25;100896.55;1718759;82;21415;-72
2022/01/13 03:08:50;;;;;;;22.50;9.50;;;;;;;-12.54;83.27;100890.30;1719033;82;21383;-72
2022/01/13 03:11:17;;;;;;;13.47;8.40;;;;;;;-12.50;83.20;100894.41;1719005;82;21901;-73
2022/01/13 03:13:44;;;;;;;11.33;8.70;;;;;;;-12.48;83.06;100893.90;1731282;82;21318;-72
2022/01/13 03:16:13;;;;;;;14.77;10.63;;;;;;;-12.48;82.96;100893.45;1719728;83;21327;-72
2022/01/13 03:18:40;;;;;;;11.07;7.80;;;;;;;-12.48;82.87;100882.24;1719538;83;21390;-71
2022/01/13 03:21:07;;;;;;;14.17;9.23;;;;;;;-12.44;82.91;100889.79;1719617;83;21361;-72
2022/01/13 03:23:34;;;;;;;11.10;7.77;;;;;;;-12.41;82.82;100898.70;1731212;82;21301;-72
2022/01/13 03:26:01;;;;;;;10.67;7.30;;;;;;;-12.39;82.68;100896.88;1719538;83;21275;-71
2022/01/13 03:28:39;;;;;;;14.07;8.30;;;;;;;-12.42;82.56;100891.83;1719593;81;21431;-72
2022/01/13 03:31:00;;;;;;;15.07;9.90;;;;;;;-12.34;82.58;100898.41;1720184;82;21382;-71
2022/01/13 03:33:26;;;;;;;9.83;7.47;;;;;;;-12.33;82.34;100888.42;1698954;83;21453;-72
2022/01/13 03:35:53;;;;;;;17.13;8.97;;;;;;;-12.39;82.25;100894.29;1725175;82;21367;-71
2022/01/13 03:38:19;;;;;;;15.27;8.67;;;;;;;-12.39;82.25;100894.29;1734817;82;21554;-71
2022/01/13 03:40:45;;;;;;;14.07;6.17;;;;;;;-12.46;82.00;100892.89;1734585;82;21438;-73
2022/01/13 03:43:13;;;;;;;12.23;8.13;;;;;;;-12.46;82.02;100879.10;1729930;82;21565;-71
2022/01/13 03:45:40;;;;;;;14.73;8.93;;;;;;;-12.47;82.15;100891.21;1721998;82;21912;-72
2022/01/13 03:48:09;;;;;;;11.80;9.80;;;;;;;-12.47;82.15;100891.21;1717954;83;21378;-73
2022/01/13 03:50:36;;;;;;;12.73;7.30;;;;;;;-12.46;81.83;100885.13;1717958;83;21748;-72
2022/01/13 03:53:29;;;;;;;16.03;8.17;;;;;;;-12.46;81.83;100885.13;1693153;83;21743;-72
2022/01/13 03:56:40;;;;;;;18.23;9.57;;;;;;;-12.39;81.62;100890.86;1718379;82;21482;-71
2022/01/13 03:59:33;;;;;;;10.60;8.50;;;;;;;-12.39;81.62;100890.86;1696615;83;21961;-73
2022/01/13 04:02:11;;;;;;;14.87;8.37;;;;;;;-12.38;81.55;100879.59;1716771;83;21391;-70
2022/01/13 04:04:48;;;;;;;;;;;;;;;-12.42;81.30;100884.54;1741549;81;21507;-71
2022/01/13 04:07:19;;;;;;;12.33;7.13;;;;;;;-12.42;81.27;100906.08;1718726;81;20150;-72
2022/01/13 04:09:51;;;;;;;18.10;10.40;;;;;;;-12.52;80.94;100918.28;1718863;83;21421;-71
2022/01/13 04:12:20;;;;;;;16.30;10.35;;;;;;;-12.52;80.94;100918.28;1718714;83;21365;-73
2022/01/13 04:14:49;;;;;;;18.20;12.13;;;;;;;-12.58;80.99;100901.73;1738285;82;21134;-71
2022/01/13 04:17:17;;;;;;;12.37;9.13;;;;;;;-12.61;81.03;100900.11;1690866;83;21818;-72
2022/01/13 04:19:44;;;;;;;13.07;8.97;;;;;;;-12.59;81.14;100911.70;1718814;83;21470;-72
2022/01/13 04:22:10;;;;;;;12.60;8.97;;;;;;;-12.61;81.15;100898.00;1714123;82;21374;-71
2022/01/13 04:24:38;;;;;;;20.70;10.73;;;;;;;-12.66;81.20;100899.98;1760253;80;21362;-73
2022/01/13 04:27:07;;;;;;;13.73;8.93;;;;;;;-12.66;81.20;100899.98;1716666;83;21379;-72
2022/01/13 04:29:40;;;;;;;20.60;12.80;;;;;;;-12.62;81.34;100889.84;1716889;83;21302;-72
2022/01/13 04:32:06;;;;;;;23.40;11.67;;;;;;;-12.61;81.31;100881.98;1689836;83;21935;-72
2022/01/13 04:34:32;;;;;;;15.60;10.77;;;;;;;-12.55;81.33;100871.78;1732480;82;21393;-71
2022/01/13 04:36:59;;;;;;;20.77;11.13;;;;;;;-12.51;81.30;100861.64;1688659;83;21373;-70
2022/01/13 04:39:27;;;;;;;14.80;11.20;;;;;;;-12.50;81.22;100860.73;1689061;83;21312;-70
2022/01/13 04:41:54;;;;;;;14.37;10.73;;;;;;;-12.49;81.27;100852.90;1688790;83;21886;-72
2022/01/13 04:44:23;;;;;;;16.57;12.67;;;;;;;-12.37;81.35;100843.66;1719649;82;21915;-70
2022/01/13 04:46:52;;;;;;;17.03;11.80;;;;;;;-12.37;81.35;100843.66;1688762;83;21526;-69
2022/01/13 04:49:19;;;;;;;21.83;13.87;;;;;;;-12.34;81.17;100847.41;1717158;83;21382;-68
2022/01/13 04:51:48;;;;;;;21.07;12.30;;;;;;;-12.31;81.11;100842.52;1717015;83;21387;-69
2022/01/13 04:54:15;;;;;;;19.40;12.13;;;;;;;-12.20;81.00;100833.30;1719514;82;21416;-68
2022/01/13 04:57:04;;;;;;;15.90;9.80;;;;;;;-12.15;81.14;100824.83;1688760;83;21524;-68
2022/01/13 04:59:10;;;;;;;23.20;13.00;;;;;;;-12.08;81.19;100830.52;1713256;83;21427;-69
2022/01/13 05:01:37;;;;;;;18.80;10.87;;;;;;;-11.98;80.87;100839.05;1717295;83;21520;-70
2022/01/13 05:04:04;;;;;;;16.43;10.97;;;;;;;-11.92;80.73;100840.95;1699012;83;21473;-69
2022/01/13 05:06:32;;;;;;;19.17;13.20;;;;;;;-11.92;80.73;100840.95;1719635;83;21668;-66
2022/01/13 05:08:58;;;;;;;15.90;10.03;;;;;;;-11.97;80.31;100830.82;1695111;83;21526;-68
2022/01/13 05:11:25;;;;;;;26.10;14.90;;;;;;;-11.97;80.31;100830.82;1719396;83;21411;-68
2022/01/13 05:13:51;;;;;;;20.23;12.20;;;;;;;-12.01;80.26;100824.13;1719566;82;21552;-67
2022/01/13 05:16:25;;;;;;;20.87;11.93;;;;;;;-12.01;80.50;100815.05;1754692;81;21541;-70
2022/01/13 05:22:15;;;;;;;17.27;11.73;;;;;;;-11.91;80.77;100800.69;1719676;82;21997;-69
2022/01/13 05:24:14;;;;;;;14.37;9.07;;;;;;;-11.83;80.57;100801.56;1718596;82;21693;-70
2022/01/13 05:26:40;;;;;;;19.53;13.07;;;;;;;-11.75;80.64;100799.42;1747317;81;21540;-71
2022/01/13 05:29:07;;;;;;;13.57;8.40;;;;;;;-11.70;80.51;100793.50;1747255;82;21566;-71
2022/01/13 05:31:34;;;;;;;18.90;11.67;;;;;;;-11.72;80.40;100787.58;1747068;82;21489;-70
2022/01/13 05:34:01;;;;;;;20.97;12.23;;;;;;;-11.71;80.40;100781.45;1718836;82;21601;-70
2022/01/13 05:36:27;;;;;;;23.30;12.73;;;;;;;-11.64;80.29;100780.18;1723982;82;21784;-70
2022/01/13 05:38:53;;;;;;;17.43;13.07;;;;;;;-11.64;80.29;100780.18;1723834;82;21759;-69
2022/01/13 05:41:19;;;;;;;20.47;13.33;;;;;;;-11.53;80.40;100775.26;1747184;82;21602;-68
2022/01/13 05:43:46;;;;;;;21.07;13.03;;;;;;;-11.42;80.34;100771.63;1739005;82;21710;-70
2022/01/13 05:46:12;;;;;;;24.00;13.20;;;;;;;-11.33;80.20;100762.49;1724099;82;21658;-70
2022/01/13 05:48:38;;;;;;;30.67;14.80;;;;;;;-11.24;79.95;100761.98;1723553;82;21734;-70
2022/01/13 05:51:05;;;;;;;18.23;11.33;;;;;;;-11.22;79.77;100761.44;1729123;82;21716;-67
2022/01/13 05:53:31;;;;;;;23.67;14.13;;;;;;;-11.18;79.52;100777.22;1730726;82;21684;-69
2022/01/13 05:55:57;;;;;;;21.27;13.50;;;;;;;-11.22;79.21;100767.94;1719312;83;21731;-69
2022/01/13 05:58:24;;;;;;;22.67;14.70;;;;;;;-11.25;79.16;100775.42;1694678;83;22318;-68
2022/01/13 06:00:50;;;;;;;18.40;13.23;;;;;;;-11.23;79.17;100785.72;1734552;82;21699;-71
2022/01/13 06:03:16;;;;;;;20.07;13.97;;;;;;;-11.20;79.21;100792.03;1743573;81;21712;-74
2022/01/13 06:05:42;;;;;;;17.07;12.63;;;;;;;-11.21;79.14;100792.49;1727773;81;22278;-71
2022/01/13 06:08:09;;;;;;;20.17;12.87;;;;;;;-11.25;79.20;100793.59;1754894;81;21717;-72
2022/01/13 06:10:38;;;;;;;16.97;11.47;;;;;;;-11.30;79.30;100786.97;1731190;81;21685;-74
2022/01/13 06:13:04;;;;;;;22.17;13.13;;;;;;;-11.30;79.45;100793.46;1724561;83;21715;-72
2022/01/13 06:15:33;;;;;;;19.50;13.60;;;;;;;-11.25;79.55;100787.55;1747825;81;21630;-73
2022/01/13 06:17:59;;;;;;;14.47;11.53;;;;;;;-11.19;79.59;100783.33;1755019;81;21682;-72
2022/01/13 06:20:26;;;;;;;22.30;13.10;;;;;;;-11.07;79.59;100778.28;1754996;81;22205;-69
2022/01/13 06:22:52;;;;;;;22.63;14.47;;;;;;;-10.96;79.46;100778.14;1749906;81;21726;-69
2022/01/13 06:25:19;;;;;;;19.00;14.27;;;;;;;-10.93;79.31;100776.20;1707883;83;22185;-69
2022/01/13 06:27:46;;;;;;;19.40;14.07;;;;;;;-10.82;79.01;100782.09;1727104;82;22217;-70
2022/01/13 06:30:14;;;;;;;20.83;14.43;;;;;;;-10.82;79.01;100782.09;1737288;81;21023;-69
2022/01/13 06:32:42;;;;;;;21.37;14.63;;;;;;;-10.78;79.08;100788.78;1740187;80;21778;-70
2022/01/13 06:35:10;;;;;;;20.07;13.93;;;;;;;-10.72;79.03;100793.17;1715972;83;22236;-66
2022/01/13 06:37:37;;;;;;;29.10;16.70;;;;;;;-10.74;78.61;100768.22;1702238;83;21737;-68
2022/01/13 06:40:05;;;;;;;17.23;14.37;;;;;;;-10.64;78.52;100753.28;1752809;81;21774;-68
2022/01/13 06:42:33;;;;;;;20.67;14.63;;;;;;;-10.64;78.52;100753.28;1725840;81;20941;-67
2022/01/13 06:44:59;;;;;;;21.10;12.77;;;;;;;-10.56;78.60;100737.72;1725544;83;21119;-69
2022/01/13 06:47:25;;;;;;;29.17;18.03;;;;;;;-10.43;78.48;100739.49;1725624;83;21735;-68
2022/01/13 06:49:52;;;;;;;27.37;17.83;;;;;;;-10.44;78.14;100738.27;1727417;81;21063;-70
2022/01/13 06:52:18;;;;;;;34.50;21.10;;;;;;;-10.43;78.18;100729.09;1729951;81;22821;-69
2022/01/13 06:54:45;;;;;;;37.97;20.73;;;;;;;-10.42;77.94;100711.73;1731267;81;21667;-70
2022/01/13 06:57:11;;;;;;;32.33;20.03;;;;;;;-10.43;77.75;100730.86;1755353;81;21061;-67
2022/01/13 06:59:37;;;;;;;45.23;21.23;;;;;;;-10.42;77.88;100730.78;1730990;81;21010;-69
2022/01/13 07:02:04;;;;;;;37.97;21.70;;;;;;;-10.35;77.90;100722.13;1734404;81;21062;-71
2022/01/13 07:04:33;;;;;;;41.20;22.10;;;;;;;-10.32;77.86;100729.30;1670508;83;22059;-71
2022/01/13 07:06:59;;;;;;;38.63;21.33;;;;;;;-10.26;77.94;100731.97;1697256;83;21079;-67
2022/01/13 07:09:26;;;;;;;42.00;21.27;;;;;;;-10.22;77.75;100721.78;1724014;82;21004;-69
2022/01/13 07:11:52;;;;;;;42.40;24.93;;;;;;;-10.19;77.68;100700.78;1727887;81;21093;-72
2022/01/13 07:14:19;;;;;;;47.50;24.47;;;;;;;-10.19;77.65;100687.31;1724066;83;21519;-70
2022/01/13 07:16:45;;;;;;;38.67;21.90;;;;;;;-10.20;77.66;100681.73;1697322;83;21087;-71
2022/01/13 07:19:13;;;;;;;36.63;22.10;;;;;;;-10.16;77.90;100694.92;1697157;83;21540;-69
2022/01/13 07:21:40;;;;;;;30.40;18.67;;;;;;;-10.08;77.97;100676.23;1734408;80;20996;-70
2022/01/13 07:24:07;;;;;;;45.77;20.80;;;;;;;-10.07;77.84;100684.37;1724214;82;21056;-72
2022/01/13 07:26:33;;;;;;;30.27;21.83;;;;;;;-10.07;77.76;100679.17;1724222;83;21068;-73
2022/01/13 07:29:00;;;;;;;37.57;22.70;;;;;;;-10.04;77.93;100666.46;1723797;83;21154;-71
2022/01/13 07:31:28;;;;;;;37.43;22.03;;;;;;;-9.93;78.07;100659.67;1723668;81;21097;-72
2022/01/13 07:33:54;;;;;;;37.47;19.77;;;;;;;-9.88;78.01;100654.98;1764648;80;21079;-75
2022/01/13 07:36:21;;;;;;;41.60;23.10;;;;;;;-9.87;78.25;100650.63;1758538;80;21065;-70
2022/01/13 07:38:48;;;;;;;36.97;21.90;;;;;;;-9.77;78.55;100653.85;1764016;81;21046;-70
2022/01/13 07:41:15;;;;;;;42.00;22.87;;;;;;;-9.67;78.56;100646.76;1743163;81;21895;-69
2022/01/13 07:43:47;;;;;;;40.53;25.17;;;;;;;-9.59;78.50;100643.22;1730813;81;21541;-73
2022/01/13 07:46:10;;;;;;;45.83;24.27;;;;;;;-9.53;78.42;100628.02;1722033;83;21002;-71
2022/01/13 07:48:38;;;;;;;41.00;24.27;;;;;;;-9.47;78.52;100614.61;1725236;82;21035;-72
2022/01/13 07:51:04;;;;;;;43.80;27.40;;;;;;;-9.36;78.62;100604.80;1737139;81;21026;-70
2022/01/13 07:53:31;;;;;;;39.90;24.23;;;;;;;-9.22;78.61;100599.98;1754214;81;21042;-72
2022/01/13 07:55:57;;;;;;;36.60;22.80;;;;;;;-9.13;78.41;100597.59;1739953;81;21049;-74
2022/01/13 07:58:23;;;;;;;47.23;25.03;;;;;;;-9.09;78.39;100603.42;1723643;83;21646;-71
2022/01/13 08:00:50;;;;;;;36.63;24.23;;;;;;;-9.05;78.36;100597.07;1732833;81;21047;-71
2022/01/13 08:03:17;;;;;;;29.97;17.47;;;;;;;-9.02;78.45;100602.93;1753005;81;21477;-75
2022/01/13 08:05:44;;;;;;;29.83;17.80;;;;;;;-8.94;78.43;100621.48;1713947;83;21090;-71
2022/01/13 08:08:10;;;;;;;41.20;23.73;;;;;;;-8.96;78.09;100635.07;1717107;83;21580;-72
2022/01/13 08:10:36;;;;;;;39.03;23.43;;;;;;;-8.98;78.19;100625.23;1712028;83;20960;-72
2022/01/13 08:13:03;;;;;;;40.37;22.13;;;;;;;-8.92;78.32;100629.20;1696070;82;21058;-74
2022/01/13 08:15:29;;;;;;;52.03;25.10;;;;;;;-8.88;78.33;100628.06;1751644;82;21650;-73
2022/01/13 08:20:41;;;;;;;39.77;23.40;;;;;;;-8.79;78.61;100621.38;1751537;82;21006;-72
2022/01/13 08:23:09;;;;;;;41.03;24.33;;;;;;;-8.79;78.71;100614.41;1751369;82;21055;-72
2022/01/13 08:25:35;;;;;;;41.83;26.63;;;;;;;-8.70;78.93;100595.98;1751453;82;21030;-70
2022/01/13 08:28:02;;;;;;;47.30;26.03;;;;;;;-8.60;79.01;100606.16;1730230;82;21012;-72
2022/01/13 08:30:29;;;;;;;41.07;23.07;;;;;;;-8.51;79.07;100604.22;1721332;81;21117;-72
2022/01/13 08:32:55;;;;;;;48.23;26.30;;;;;;;-8.50;78.96;100608.03;1752114;81;21083;-73
2022/01/13 08:35:21;;;;;;;45.53;25.83;;;;;;;-8.49;79.07;100599.73;1721708;83;21524;-70
2022/01/13 08:37:47;;;;;;;43.30;23.17;;;;;;;-8.47;79.10;100599.98;1752391;81;21568;-72
2022/01/13 08:40:14;;;;;;;41.83;23.83;;;;;;;-8.44;79.30;100594.54;1721816;83;21017;-72
2022/01/13 08:42:41;;;;;;;28.80;17.50;;;;;;;-8.42;79.38;100588.77;1728278;82;21156;-73
2022/01/13 08:45:09;;;;;;;54.90;28.63;;;;;;;-8.36;79.69;100595.33;1751626;82;20931;-74
2022/01/13 08:47:36;;;;;;;48.13;25.90;;;;;;;-8.26;79.67;100575.45;1695359;82;21057;-70
2022/01/13 08:50:05;;;;;;;42.37;24.10;;;;;;;-8.15;79.81;100558.55;1723850;82;21698;-71
2022/01/13 08:52:33;;;;;;;47.60;25.80;;;;;;;-8.03;79.86;100558.14;1751505;82;21006;-73
2022/01/13 08:54:59;;;;;;;40.37;24.83;;;;;;;-7.92;79.81;100543.86;1695789;81;21086;-70
2022/01/13 08:57:26;;;;;;;32.43;21.47;;;;;;;-7.82;79.76;100538.80;1751602;82;20939;-73
2022/01/13 08:59:52;;;;;;;42.47;24.77;;;;;;;-7.76;79.67;100543.55;1751897;81;21524;-74
2022/01/13 09:02:18;;;;;;;46.63;24.77;;;;;;;-7.76;79.57;100532.64;1751687;82;21030;-73
2022/01/13 09:04:44;;;;;;;54.83;27.70;;;;;;;-7.73;79.67;100540.27;1726406;81;21073;-73
2022/01/13 09:07:11;;;;;;;54.60;27.80;;;;;;;-7.69;79.72;100530.42;1724306;81;21294;-71
2022/01/13 09:09:37;;;;;;;50.77;28.80;;;;;;;-7.61;79.83;100529.38;1724280;82;20992;-72
2022/01/13 09:12:05;;;;;;;51.83;25.83;;;;;;;-7.54;79.79;100530.60;1724225;81;21028;-73
2022/01/13 09:14:33;;;;;;;57.33;33.63;;;;;;;-7.48;79.72;100529.31;1724408;82;21501;-71
2022/01/13 09:17:00;;;;;;;49.33;27.70;;;;;;;-7.44;79.72;100526.36;1724241;81;21083;-72
2022/01/13 09:19:29;;;;;;;47.50;29.07;;;;;;;-7.33;79.77;100530.76;1724652;81;21855;-75
2022/01/13 09:21:57;;;;;;;53.23;31.50;;;;;;;-7.23;79.67;100532.56;1724344;83;20990;-73
2022/01/13 09:24:23;;;;;;;45.97;23.33;;;;;;;-7.15;79.54;100530.23;1697545;83;20996;-73
2022/01/13 09:26:49;;;;;;;45.50;27.33;;;;;;;-7.02;79.56;100510.98;1724313;83;21094;-73
2022/01/13 09:29:16;;;;;;;49.53;30.10;;;;;;;-7.03;79.20;100503.61;1724414;83;21023;-72
2022/01/13 09:31:43;;;;;;;57.77;32.23;;;;;;;-7.00;79.31;100485.57;1698726;82;23179;-73
2022/01/13 09:34:09;;;;;;;54.33;29.83;;;;;;;-6.95;79.31;100472.97;1750017;81;21014;-73
2022/01/13 09:36:36;;;;;;;52.20;30.70;;;;;;;-6.85;79.45;100473.42;1729084;81;20938;-74
2022/01/13 09:39:04;;;;;;;55.80;31.97;;;;;;;-6.74;79.45;100450.36;1729419;81;21010;-73
2022/01/13 09:41:33;;;;;;;47.40;27.43;;;;;;;-6.61;79.48;100440.58;1754654;81;21011;-76
2022/01/13 09:44:02;;;;;;;59.03;30.90;;;;;;;-6.48;79.38;100435.22;1754877;81;21094;-71
2022/01/13 09:46:30;;;;;;;53.77;31.23;;;;;;;-6.44;78.98;100436.16;1754516;81;22155;-74
2022/01/13 09:48:57;;;;;;;52.40;30.03;;;;;;;-6.39;79.10;100440.55;1728757;81;21037;-74
2022/01/13 09:51:25;;;;;;;62.33;34.77;;;;;;;-6.30;79.01;100433.73;1754436;81;21042;-74
2022/01/13 09:53:51;;;;;;;63.10;35.30;;;;;;;-6.26;78.97;100436.45;1754701;81;21089;-72
2022/01/13 09:56:17;;;;;;;52.97;30.07;;;;;;;-6.21;78.99;100429.06;1754461;81;21507;-72
2022/01/13 09:58:44;;;;;;;54.67;30.20;;;;;;;-6.12;79.18;100424.86;1728739;81;20955;-74
2022/01/13 10:01:11;;;;;;;58.00;32.03;;;;;;;-6.03;79.10;100412.31;1754693;81;21002;-71
2022/01/13 10:03:38;;;;;;;55.43;33.73;;;;;;;-6.02;79.03;100402.20;1738245;81;21016;-73
2022/01/13 10:06:10;;;;;;;59.23;32.77;;;;;;;-6.00;79.14;100404.23;1727186;83;21560;-73
2022/01/13 10:08:51;;;;;;;50.55;32.10;;;;;;;-6.00;79.39;100397.69;1763072;81;26980;-74
2022/01/13 10:11:45;;;;;;;52.20;29.23;;;;;;;-5.96;79.62;100377.66;1727660;81;20940;-71
2022/01/13 10:17:07;;;;;;;46.80;27.17;;;;;;;-5.88;80.12;100367.38;1762483;81;20199;-72
2022/01/13 10:19:42;;;;;;;43.10;27.23;;;;;;;-5.82;80.45;100355.05;1744553;81;20979;-74
2022/01/13 10:22:20;;;;;;;49.30;28.70;;;;;;;-5.74;80.66;100349.15;1754734;81;21017;-72
2022/01/13 10:24:52;;;;;;;54.77;30.40;;;;;;;-5.67;80.80;100349.00;1754950;81;21054;-73
2022/01/13 10:27:30;;;;;;;45.97;29.93;;;;;;;-5.61;81.07;100354.20;1755158;81;20977;-70
2022/01/13 10:30:04;;;;;;;46.90;23.77;;;;;;;-5.55;81.44;100351.87;1755045;81;21057;-72
2022/01/13 10:32:38;;;;;;;45.63;24.97;;;;;;;-5.50;81.68;100345.75;1754867;81;21101;-75
2022/01/13 10:35:15;;;;;;;46.47;26.53;;;;;;;-5.41;81.87;100340.20;1755354;81;21826;-73
2022/01/13 10:37:44;;;;;;;43.83;28.33;;;;;;;-5.31;82.13;100340.59;1736706;81;21612;-71
2022/01/13 10:40:15;;;;;;;46.10;26.53;;;;;;;-5.17;82.36;100324.14;1727253;83;20943;-70
2022/01/13 10:45:34;;;;;;;48.10;25.80;;;;;;;-5.02;82.70;100327.57;1727167;82;21477;-72
2022/01/13 10:48:08;;;;;;;53.17;32.93;;;;;;;-4.99;82.90;100331.73;1727018;82;21011;-71
2022/01/13 10:50:51;;;;;;;48.57;29.53;;;;;;;-5.00;83.13;100326.97;1761386;81;21545;-72
2022/01/13 10:53:27;;;;;;;52.85;30.08;;;;;;;-4.93;83.40;100332.00;1726779;82;21035;-71
2022/01/13 10:55:58;;;;;;;46.60;26.70;;;;;;;-4.87;83.57;100320.14;1727260;83;21016;-71
2022/01/13 10:58:27;;;;;;;48.23;27.73;;;;;;;-4.81;83.66;100309.11;1729216;81;21098;-70
2022/01/13 11:00:56;;;;;;;46.20;25.93;;;;;;;-4.73;83.84;100301.37;1754304;81;21513;-71
2022/01/13 11:03:25;;;;;;;50.53;29.80;;;;;;;-4.72;83.89;100285.98;1754573;81;21062;-72
2022/01/13 11:05:56;;;;;;;50.73;29.57;;;;;;;-4.65;84.09;100279.20;1739928;81;21183;-72
2022/01/13 11:08:41;;;;;;;49.00;27.20;;;;;;;-4.57;84.23;100275.43;1721833;83;21021;-73
2022/01/13 11:11:21;;;;;;;50.17;29.50;;;;;;;-4.48;84.21;100261.47;1721377;81;21607;-73
2022/01/13 11:13:56;;;;;;;54.97;29.70;;;;;;;-4.37;84.21;100257.04;1752412;81;20999;-73
2022/01/13 11:16:24;;;;;;;45.83;30.27;;;;;;;-4.36;84.14;100260.02;1751827;81;21006;-70
2022/01/13 11:18:51;;;;;;;43.93;27.10;;;;;;;-4.31;84.26;100237.59;1721412;83;21513;-74
2022/01/13 11:21:17;;;;;;;46.77;28.90;;;;;;;-4.23;84.21;100228.55;1717097;81;21116;-82
2022/01/13 11:23:51;;;;;;;45.13;29.17;;;;;;;-4.18;84.16;100220.23;1725840;82;21049;-86
2022/01/13 11:26:17;;;;;;;45.83;27.13;;;;;;;-4.14;84.17;100215.88;1711962;83;21156;-83
2022/01/13 11:28:44;;;;;;;51.33;32.67;;;;;;;-4.11;84.17;100213.43;1711244;83;21004;-80